DLH307 EBBR-EDDF
Flight info
| Callsign | DLH307 |
|---|---|
| Flight time | 0h 34m |
| Altitude | 28000 |
| Route | SPI T180 NIVNU T847 IMCOM IMCOM1D |
| Aircraft | A20N/M-SDE2E3FGHIRWXY/LB1 |
Departure
| Time | 2026-04-14 16:15 |
|---|---|
| Airport | Brussels Airport (EBBR) |
Arrival
| Time | 2026-04-14 16:49 |
|---|---|
| Airport | Frankfurt Main Airport (EDDF) |
| Time | Latitude | Longitude | Altitude | Speed | Heading |
|---|---|---|---|---|---|
| 2026-04-14 16:01 | 50.90327 | 4.48748 | 143 ft | 0 kts | 338° |
| 2026-04-14 16:07 | 50.90323 | 4.48750 | 143 ft | 3 kts | 338° |
| 2026-04-14 16:07 | 50.90304 | 4.48762 | 143 ft | 3 kts | 338° |
| 2026-04-14 16:07 | 50.90285 | 4.48774 | 143 ft | 3 kts | 340° |
| 2026-04-14 16:08 | 50.90268 | 4.48783 | 143 ft | 2 kts | 348° |
| 2026-04-14 16:08 | 50.90257 | 4.48786 | 143 ft | 1 kts | 15° |
| 2026-04-14 16:08 | 50.90249 | 4.48781 | 143 ft | 1 kts | 50° |
| 2026-04-14 16:08 | 50.90244 | 4.48770 | 143 ft | 1 kts | 62° |
| 2026-04-14 16:09 | 50.90241 | 4.48759 | 143 ft | 1 kts | 65° |
| 2026-04-14 16:09 | 50.90241 | 4.48760 | 143 ft | 0 kts | 65° |
| 2026-04-14 16:10 | 50.90242 | 4.48765 | 143 ft | 3 kts | 65° |
| 2026-04-14 16:10 | 50.90266 | 4.48846 | 143 ft | 14 kts | 66° |
| 2026-04-14 16:11 | 50.90315 | 4.49020 | 143 ft | 18 kts | 65° |
| 2026-04-14 16:11 | 50.90372 | 4.49215 | 143 ft | 21 kts | 65° |
| 2026-04-14 16:11 | 50.90418 | 4.49373 | 143 ft | 12 kts | 65° |
| 2026-04-14 16:11 | 50.90457 | 4.49507 | 143 ft | 15 kts | 65° |
| 2026-04-14 16:12 | 50.90513 | 4.49615 | 143 ft | 13 kts | 13° |
| 2026-04-14 16:12 | 50.90610 | 4.49657 | 142 ft | 16 kts | 15° |
| 2026-04-14 16:12 | 50.90726 | 4.49705 | 142 ft | 19 kts | 13° |
| 2026-04-14 16:12 | 50.90820 | 4.49741 | 141 ft | 8 kts | 15° |
| 2026-04-14 16:13 | 50.90884 | 4.49750 | 141 ft | 11 kts | 342° |
| 2026-04-14 16:13 | 50.90942 | 4.49687 | 139 ft | 7 kts | 324° |
| 2026-04-14 16:13 | 50.90969 | 4.49655 | 136 ft | 8 kts | 320° |
| 2026-04-14 16:13 | 50.90995 | 4.49525 | 126 ft | 18 kts | 278° |
| 2026-04-14 16:14 | 50.90992 | 4.49374 | 125 ft | 0 kts | 246° |
| 2026-04-14 16:14 | 50.90988 | 4.49356 | 128 ft | 15 kts | 246° |
| 2026-04-14 16:14 | 50.90836 | 4.48833 | 127 ft | 87 kts | 246° |
| 2026-04-14 16:15 | 50.90507 | 4.47694 | 133 ft | 141 kts | 245° |
| 2026-04-14 16:15 | 50.90052 | 4.46115 | 354 ft | 166 kts | 244° |
| 2026-04-14 16:15 | 50.89568 | 4.44444 | 1063 ft | 163 kts | 244° |
| 2026-04-14 16:15 | 50.89044 | 4.42898 | 1822 ft | 159 kts | 226° |
| 2026-04-14 16:16 | 50.88039 | 4.42090 | 2200 ft | 174 kts | 183° |
| 2026-04-14 16:16 | 50.86795 | 4.42481 | 2623 ft | 194 kts | 158° |
| 2026-04-14 16:16 | 50.85522 | 4.43475 | 3086 ft | 214 kts | 146° |
| 2026-04-14 16:16 | 50.84365 | 4.45132 | 3603 ft | 236 kts | 128° |
| 2026-04-14 16:17 | 50.83468 | 4.47443 | 4182 ft | 257 kts | 115° |
| 2026-04-14 16:17 | 50.82807 | 4.50079 | 5084 ft | 264 kts | 109° |
| 2026-04-14 16:17 | 50.82246 | 4.52880 | 6043 ft | 270 kts | 107° |
| 2026-04-14 16:17 | 50.81724 | 4.55678 | 6957 ft | 275 kts | 106° |
| 2026-04-14 16:18 | 50.81176 | 4.58608 | 7876 ft | 280 kts | 106° |
| 2026-04-14 16:18 | 50.80612 | 4.61576 | 8817 ft | 284 kts | 107° |
| 2026-04-14 16:18 | 50.80028 | 4.64594 | 9753 ft | 290 kts | 107° |
| 2026-04-14 16:18 | 50.79428 | 4.67681 | 10574 ft | 298 kts | 107° |
| 2026-04-14 16:19 | 50.78797 | 4.70933 | 10934 ft | 322 kts | 107° |
| 2026-04-14 16:19 | 50.78113 | 4.74436 | 11311 ft | 342 kts | 107° |
| 2026-04-14 16:19 | 50.77294 | 4.78005 | 12069 ft | 348 kts | 115° |
| 2026-04-14 16:19 | 50.76245 | 4.81470 | 12915 ft | 352 kts | 116° |
| 2026-04-14 16:20 | 50.75181 | 4.84982 | 13751 ft | 357 kts | 116° |
| 2026-04-14 16:20 | 50.74108 | 4.88535 | 14507 ft | 361 kts | 117° |
| 2026-04-14 16:20 | 50.73021 | 4.92132 | 15263 ft | 364 kts | 117° |
| 2026-04-14 16:20 | 50.71922 | 4.95767 | 16000 ft | 369 kts | 117° |
| 2026-04-14 16:21 | 50.70809 | 4.99437 | 16730 ft | 373 kts | 117° |
| 2026-04-14 16:21 | 50.69685 | 5.03140 | 17469 ft | 376 kts | 117° |
| 2026-04-14 16:21 | 50.68548 | 5.06880 | 18188 ft | 380 kts | 117° |
| 2026-04-14 16:21 | 50.67416 | 5.10597 | 18823 ft | 384 kts | 117° |
| 2026-04-14 16:22 | 50.66245 | 5.14436 | 19435 ft | 388 kts | 117° |
| 2026-04-14 16:22 | 50.65067 | 5.18290 | 20035 ft | 392 kts | 117° |
| 2026-04-14 16:22 | 50.63874 | 5.22189 | 20641 ft | 396 kts | 117° |
| 2026-04-14 16:22 | 50.62673 | 5.26106 | 21232 ft | 400 kts | 117° |
| 2026-04-14 16:23 | 50.61454 | 5.30075 | 21810 ft | 404 kts | 117° |
| 2026-04-14 16:23 | 50.60224 | 5.34072 | 22407 ft | 407 kts | 117° |
| 2026-04-14 16:23 | 50.58984 | 5.38101 | 22854 ft | 412 kts | 117° |
| 2026-04-14 16:23 | 50.57731 | 5.42164 | 22980 ft | 412 kts | 117° |
| 2026-04-14 16:24 | 50.56482 | 5.46210 | 23093 ft | 412 kts | 117° |
| 2026-04-14 16:24 | 50.55241 | 5.50221 | 23205 ft | 413 kts | 117° |
| 2026-04-14 16:24 | 50.53966 | 5.54337 | 23209 ft | 413 kts | 117° |
| 2026-04-14 16:24 | 50.52725 | 5.58335 | 23208 ft | 412 kts | 117° |
| 2026-04-14 16:25 | 50.51526 | 5.62432 | 23209 ft | 413 kts | 112° |
| 2026-04-14 16:25 | 50.50641 | 5.66729 | 23213 ft | 414 kts | 107° |
| 2026-04-14 16:25 | 50.49844 | 5.71064 | 23203 ft | 413 kts | 107° |
| 2026-04-14 16:25 | 50.49041 | 5.75402 | 23200 ft | 413 kts | 107° |
| 2026-04-14 16:26 | 50.48233 | 5.79732 | 23199 ft | 413 kts | 107° |
| 2026-04-14 16:26 | 50.47423 | 5.84056 | 23201 ft | 413 kts | 107° |
| 2026-04-14 16:26 | 50.46608 | 5.88389 | 23199 ft | 413 kts | 107° |
| 2026-04-14 16:26 | 50.45793 | 5.92711 | 23194 ft | 413 kts | 108° |
| 2026-04-14 16:27 | 50.44976 | 5.97033 | 23196 ft | 413 kts | 108° |
| 2026-04-14 16:27 | 50.44157 | 6.01357 | 23195 ft | 413 kts | 108° |
| 2026-04-14 16:27 | 50.43338 | 6.05672 | 23191 ft | 412 kts | 108° |
| 2026-04-14 16:27 | 50.42518 | 6.09982 | 23187 ft | 413 kts | 108° |
| 2026-04-14 16:28 | 50.41695 | 6.14295 | 23189 ft | 413 kts | 108° |
| 2026-04-14 16:28 | 50.40882 | 6.18549 | 23195 ft | 413 kts | 108° |
| 2026-04-14 16:28 | 50.40056 | 6.22861 | 23185 ft | 413 kts | 108° |
| 2026-04-14 16:28 | 50.39228 | 6.27174 | 23182 ft | 412 kts | 108° |
| 2026-04-14 16:29 | 50.38399 | 6.31478 | 23183 ft | 412 kts | 108° |
| 2026-04-14 16:29 | 50.37570 | 6.35775 | 23189 ft | 412 kts | 108° |
| 2026-04-14 16:29 | 50.36759 | 6.40079 | 23184 ft | 412 kts | 105° |
| 2026-04-14 16:29 | 50.36226 | 6.44498 | 23183 ft | 413 kts | 98° |
| 2026-04-14 16:30 | 50.35959 | 6.48998 | 23186 ft | 414 kts | 96° |
| 2026-04-14 16:30 | 50.35693 | 6.53482 | 23187 ft | 414 kts | 96° |
| 2026-04-14 16:30 | 50.35411 | 6.57965 | 23182 ft | 413 kts | 97° |
| 2026-04-14 16:30 | 50.35125 | 6.62441 | 23184 ft | 413 kts | 97° |
| 2026-04-14 16:31 | 50.34837 | 6.66895 | 23185 ft | 414 kts | 97° |
| 2026-04-14 16:31 | 50.34546 | 6.71399 | 23187 ft | 414 kts | 97° |
| 2026-04-14 16:31 | 50.34256 | 6.75873 | 23185 ft | 413 kts | 97° |
| 2026-04-14 16:31 | 50.33977 | 6.80287 | 23185 ft | 413 kts | 97° |
| 2026-04-14 16:32 | 50.33516 | 6.84719 | 23185 ft | 412 kts | 104° |
| 2026-04-14 16:32 | 50.32701 | 6.89012 | 23170 ft | 410 kts | 112° |
| 2026-04-14 16:32 | 50.31577 | 6.93094 | 22905 ft | 406 kts | 117° |
| 2026-04-14 16:32 | 50.30378 | 6.97076 | 22427 ft | 403 kts | 117° |
| 2026-04-14 16:33 | 50.29194 | 7.01029 | 21875 ft | 400 kts | 117° |
| 2026-04-14 16:33 | 50.28023 | 7.04948 | 21317 ft | 396 kts | 117° |
| 2026-04-14 16:33 | 50.26863 | 7.08833 | 20785 ft | 392 kts | 117° |
| 2026-04-14 16:33 | 50.25716 | 7.12673 | 20241 ft | 388 kts | 117° |
| 2026-04-14 16:34 | 50.24574 | 7.16484 | 19704 ft | 385 kts | 117° |
| 2026-04-14 16:34 | 50.23440 | 7.20264 | 19188 ft | 381 kts | 117° |
| 2026-04-14 16:34 | 50.22320 | 7.23990 | 18696 ft | 378 kts | 117° |
| 2026-04-14 16:34 | 50.21207 | 7.27687 | 18153 ft | 374 kts | 117° |
| 2026-04-14 16:35 | 50.20111 | 7.31321 | 17588 ft | 371 kts | 117° |
| 2026-04-14 16:35 | 50.19122 | 7.34993 | 17030 ft | 369 kts | 111° |
| 2026-04-14 16:35 | 50.18238 | 7.38742 | 16492 ft | 366 kts | 111° |
| 2026-04-14 16:35 | 50.17358 | 7.42455 | 15954 ft | 364 kts | 111° |
| 2026-04-14 16:36 | 50.16479 | 7.46143 | 15432 ft | 361 kts | 111° |
| 2026-04-14 16:36 | 50.15604 | 7.49800 | 14937 ft | 358 kts | 111° |
| 2026-04-14 16:36 | 50.14734 | 7.53433 | 14438 ft | 356 kts | 111° |
| 2026-04-14 16:36 | 50.13871 | 7.57032 | 13948 ft | 354 kts | 111° |
| 2026-04-14 16:37 | 50.13010 | 7.60613 | 13418 ft | 350 kts | 111° |
| 2026-04-14 16:37 | 50.12168 | 7.64110 | 12924 ft | 347 kts | 112° |
| 2026-04-14 16:37 | 50.11325 | 7.67612 | 12420 ft | 344 kts | 112° |
| 2026-04-14 16:37 | 50.10592 | 7.71152 | 11920 ft | 342 kts | 108° |
| 2026-04-14 16:38 | 50.09914 | 7.74675 | 11524 ft | 336 kts | 108° |
| 2026-04-14 16:38 | 50.09246 | 7.78131 | 11275 ft | 334 kts | 108° |
| 2026-04-14 16:38 | 50.08572 | 7.81596 | 10858 ft | 334 kts | 108° |
| 2026-04-14 16:38 | 50.08211 | 7.85153 | 10495 ft | 331 kts | 92° |
| 2026-04-14 16:39 | 50.08509 | 7.88607 | 10310 ft | 315 kts | 76° |
| 2026-04-14 16:39 | 50.09249 | 7.91721 | 10130 ft | 298 kts | 71° |
| 2026-04-14 16:39 | 50.09977 | 7.94661 | 9916 ft | 282 kts | 71° |
| 2026-04-14 16:39 | 50.10440 | 7.97499 | 9741 ft | 260 kts | 91° |
| 2026-04-14 16:40 | 50.10165 | 8.00172 | 9294 ft | 247 kts | 115° |
| 2026-04-14 16:40 | 50.09235 | 8.02366 | 8720 ft | 242 kts | 139° |
| 2026-04-14 16:40 | 50.08393 | 8.03497 | 8349 ft | 241 kts | 142° |
| 2026-04-14 16:40 | 50.06917 | 8.05436 | 7855 ft | 241 kts | 141° |
| 2026-04-14 16:41 | 50.05547 | 8.06895 | 7459 ft | 238 kts | 160° |
| 2026-04-14 16:41 | 50.03945 | 8.07182 | 7063 ft | 237 kts | 190° |
| 2026-04-14 16:41 | 50.02456 | 8.06157 | 6673 ft | 237 kts | 220° |
| 2026-04-14 16:41 | 50.01499 | 8.04088 | 6231 ft | 239 kts | 249° |
| 2026-04-14 16:42 | 50.00784 | 8.01781 | 5824 ft | 237 kts | 231° |
| 2026-04-14 16:42 | 49.99477 | 8.00270 | 5429 ft | 236 kts | 200° |
| 2026-04-14 16:42 | 49.97876 | 8.00050 | 5171 ft | 232 kts | 167° |
| 2026-04-14 16:42 | 49.96415 | 8.01210 | 5064 ft | 241 kts | 136° |
| 2026-04-14 16:43 | 49.95291 | 8.03110 | 4998 ft | 238 kts | 130° |
| 2026-04-14 16:43 | 49.94601 | 8.04430 | 5009 ft | 238 kts | 122° |
| 2026-04-14 16:43 | 49.94085 | 8.06835 | 5010 ft | 238 kts | 92° |
| 2026-04-14 16:43 | 49.94258 | 8.09376 | 5010 ft | 237 kts | 75° |
| 2026-04-14 16:44 | 49.94741 | 8.11822 | 5003 ft | 237 kts | 69° |
| 2026-04-14 16:44 | 49.95306 | 8.14222 | 5008 ft | 236 kts | 69° |
| 2026-04-14 16:44 | 49.95869 | 8.16619 | 5010 ft | 236 kts | 69° |
| 2026-04-14 16:45 | 49.96998 | 8.21410 | 4643 ft | 232 kts | 69° |
| 2026-04-14 16:45 | 49.97545 | 8.23730 | 4306 ft | 225 kts | 69° |
| 2026-04-14 16:45 | 49.98075 | 8.25973 | 3980 ft | 218 kts | 69° |
| 2026-04-14 16:45 | 49.98592 | 8.28164 | 3667 ft | 212 kts | 68° |
| 2026-04-14 16:46 | 49.99094 | 8.30282 | 3368 ft | 207 kts | 68° |
| 2026-04-14 16:46 | 49.99587 | 8.32364 | 3068 ft | 206 kts | 68° |
| 2026-04-14 16:46 | 50.00074 | 8.34423 | 2798 ft | 195 kts | 68° |
| 2026-04-14 16:46 | 50.00524 | 8.36320 | 2509 ft | 180 kts | 68° |
| 2026-04-14 16:47 | 50.00953 | 8.38126 | 2255 ft | 173 kts | 68° |
| 2026-04-14 16:47 | 50.01365 | 8.39861 | 1999 ft | 171 kts | 68° |
| 2026-04-14 16:47 | 50.01766 | 8.41554 | 1709 ft | 158 kts | 68° |
| 2026-04-14 16:47 | 50.02126 | 8.43090 | 1325 ft | 145 kts | 69° |
| 2026-04-14 16:48 | 50.02458 | 8.44490 | 1061 ft | 132 kts | 68° |
| 2026-04-14 16:48 | 50.02787 | 8.45825 | 905 ft | 134 kts | 69° |
| 2026-04-14 16:48 | 50.03100 | 8.47159 | 727 ft | 132 kts | 69° |
| 2026-04-14 16:48 | 50.03419 | 8.48511 | 548 ft | 130 kts | 68° |
| 2026-04-14 16:49 | 50.03736 | 8.49833 | 388 ft | 129 kts | 68° |
| 2026-04-14 16:49 | 50.04023 | 8.51034 | 353 ft | 101 kts | 69° |
| 2026-04-14 16:49 | 50.04199 | 8.51771 | 356 ft | 43 kts | 70° |
| 2026-04-14 16:49 | 50.04238 | 8.52099 | 348 ft | 27 kts | 90° |
| 2026-04-14 16:50 | 50.04216 | 8.52331 | 349 ft | 16 kts | 102° |
| 2026-04-14 16:50 | 50.04197 | 8.52511 | 348 ft | 18 kts | 100° |
| 2026-04-14 16:50 | 50.04209 | 8.52710 | 349 ft | 20 kts | 69° |
| 2026-04-14 16:50 | 50.04258 | 8.52921 | 351 ft | 22 kts | 69° |
| 2026-04-14 16:51 | 50.04313 | 8.53148 | 354 ft | 23 kts | 70° |
| 2026-04-14 16:51 | 50.04363 | 8.53355 | 353 ft | 17 kts | 69° |
| 2026-04-14 16:51 | 50.04397 | 8.53545 | 352 ft | 19 kts | 85° |
| 2026-04-14 16:51 | 50.04411 | 8.53763 | 355 ft | 21 kts | 84° |
| 2026-04-14 16:52 | 50.04427 | 8.54003 | 348 ft | 23 kts | 84° |
| 2026-04-14 16:52 | 50.04444 | 8.54247 | 356 ft | 22 kts | 84° |
| 2026-04-14 16:52 | 50.04454 | 8.54422 | 348 ft | 8 kts | 89° |
| 2026-04-14 16:52 | 50.04439 | 8.54551 | 354 ft | 16 kts | 107° |
| 2026-04-14 16:53 | 50.04385 | 8.54690 | 350 ft | 17 kts | 132° |
| 2026-04-14 16:53 | 50.04297 | 8.54783 | 347 ft | 14 kts | 157° |
| 2026-04-14 16:53 | 50.04214 | 8.54827 | 355 ft | 13 kts | 161° |
| 2026-04-14 16:53 | 50.04118 | 8.54882 | 352 ft | 16 kts | 159° |
| 2026-04-14 16:54 | 50.04027 | 8.54949 | 355 ft | 13 kts | 126° |
| 2026-04-14 16:54 | 50.04035 | 8.55088 | 354 ft | 14 kts | 70° |
| 2026-04-14 16:54 | 50.04073 | 8.55247 | 354 ft | 17 kts | 70° |
| 2026-04-14 16:54 | 50.04116 | 8.55428 | 354 ft | 19 kts | 69° |
| 2026-04-14 16:55 | 50.04165 | 8.55629 | 349 ft | 21 kts | 70° |
| 2026-04-14 16:55 | 50.04217 | 8.55848 | 350 ft | 22 kts | 69° |
| 2026-04-14 16:55 | 50.04274 | 8.56083 | 349 ft | 24 kts | 69° |
| 2026-04-14 16:55 | 50.04333 | 8.56333 | 351 ft | 25 kts | 69° |
| 2026-04-14 16:56 | 50.04393 | 8.56587 | 361 ft | 21 kts | 69° |
| 2026-04-14 16:56 | 50.04435 | 8.56760 | 356 ft | 12 kts | 69° |
| 2026-04-14 16:56 | 50.04488 | 8.56868 | 360 ft | 14 kts | 18° |
| 2026-04-14 16:56 | 50.04588 | 8.56904 | 360 ft | 11 kts | 12° |
| 2026-04-14 16:57 | 50.04633 | 8.56885 | 356 ft | 7 kts | 290° |
| 2026-04-14 16:57 | 50.04647 | 8.56835 | 362 ft | 6 kts | 294° |
| 2026-04-14 16:57 | 50.04656 | 8.56806 | 359 ft | 1 kts | 295° |